Time;durP1;ratioP1;P1;durP2;ratioP2;P2;SDS_P1;SDS_P2;PMS_P1;PMS_P2;Temp;Humidity;BMP_temperature;BMP_pressure;BME280_temperature;BME280_humidity;BME280_pressure;Samples;Min_cycle;Max_cycle;Signal;HPM_P1;HPM_P2
2024/01/18 00:01:53;;;;;;;34.00;23.88;;;-2.20;99.90;;;;;;5087405;28;20491;-34
2024/01/18 00:04:19;;;;;;;29.67;23.20;;;-2.30;99.90;;;;;;5086303;28;20438;-33
2024/01/18 00:06:45;;;;;;;34.35;23.42;;;-2.30;99.90;;;;;;5086892;28;20036;-32
2024/01/18 00:09:10;;;;;;;26.20;21.42;;;-2.30;99.90;;;;;;5089588;28;20122;-32
2024/01/18 00:11:36;;;;;;;29.58;22.55;;;-2.30;99.90;;;;;;5088829;28;20059;-32
2024/01/18 00:14:02;;;;;;;28.10;22.35;;;-2.30;99.90;;;;;;5084124;28;20046;-31
2024/01/18 00:16:28;;;;;;;27.45;21.95;;;-2.30;99.90;;;;;;5086283;28;20582;-32
2024/01/18 00:18:55;;;;;;;33.92;21.60;;;-2.30;99.90;;;;;;5081703;28;20134;-33
2024/01/18 00:21:21;;;;;;;29.15;22.42;;;-2.30;99.90;;;;;;5085858;28;20054;-35
2024/01/18 00:23:46;;;;;;;28.27;22.38;;;-2.30;99.90;;;;;;5089300;28;20032;-35
2024/01/18 00:26:12;;;;;;;31.23;22.15;;;-2.20;99.90;;;;;;5078868;28;20123;-35
2024/01/18 00:28:38;;;;;;;38.85;22.50;;;-2.30;99.90;;;;;;5088632;28;20035;-35
2024/01/18 00:31:03;;;;;;;28.42;21.77;;;-2.40;99.90;;;;;;5051660;28;20117;-35
2024/01/18 00:33:29;;;;;;;28.63;21.23;;;-2.30;99.90;;;;;;5087707;28;20044;-36
2024/01/18 00:35:55;;;;;;;28.15;19.77;;;-2.40;99.90;;;;;;5083880;28;20048;-36
2024/01/18 00:38:21;;;;;;;27.48;21.67;;;-2.40;99.90;;;;;;5082931;28;20066;-36
2024/01/18 00:40:46;;;;;;;31.80;21.48;;;-2.40;99.90;;;;;;5081832;28;20028;-36
2024/01/18 00:43:12;;;;;;;28.35;20.15;;;-2.40;99.90;;;;;;5089125;28;20040;-33
2024/01/18 00:45:38;;;;;;;27.63;21.27;;;-2.40;99.90;;;;;;5080292;28;20044;-35
2024/01/18 00:48:04;;;;;;;24.70;19.48;;;-2.40;99.90;;;;;;5090094;28;20097;-36
2024/01/18 00:50:29;;;;;;;25.65;19.15;;;-2.40;99.90;;;;;;5081143;28;20032;-35
2024/01/18 00:52:55;;;;;;;22.55;17.63;;;-2.40;99.90;;;;;;5090708;28;20081;-36
2024/01/18 00:55:21;;;;;;;25.77;19.48;;;-2.40;99.90;;;;;;5083833;28;20119;-34
2024/01/18 00:57:47;;;;;;;31.13;19.40;;;-2.40;99.90;;;;;;5080889;28;20483;-34
2024/01/18 01:00:13;;;;;;;25.40;18.35;;;-2.40;99.90;;;;;;5088884;28;20044;-35
2024/01/18 01:02:39;;;;;;;24.60;17.15;;;-2.50;99.90;;;;;;5085916;28;20043;-35
2024/01/18 01:05:05;;;;;;;22.38;17.42;;;-2.50;99.90;;;;;;5087177;28;20040;-34
2024/01/18 01:07:31;;;;;;;21.02;16.92;;;-2.50;99.90;;;;;;5080361;28;20122;-35
2024/01/18 01:09:56;;;;;;;21.88;16.20;;;-2.50;99.90;;;;;;5088895;28;20105;-35
2024/01/18 01:12:22;;;;;;;24.50;16.60;;;-2.50;99.90;;;;;;5084157;28;20533;-35
2024/01/18 01:14:48;;;;;;;23.15;15.75;;;-2.50;99.90;;;;;;5081246;28;20040;-35
2024/01/18 01:17:14;;;;;;;24.13;16.58;;;-2.50;99.90;;;;;;5088467;28;20119;-36
2024/01/18 01:19:40;;;;;;;21.35;15.02;;;-2.50;99.90;;;;;;5059483;28;20483;-35
2024/01/18 01:22:06;;;;;;;25.05;15.60;;;-2.50;99.90;;;;;;5088167;28;20032;-35
2024/01/18 01:24:31;;;;;;;22.60;15.43;;;-2.50;99.90;;;;;;5082733;28;20090;-35
2024/01/18 01:26:57;;;;;;;21.60;15.88;;;-2.50;99.90;;;;;;5084332;28;20040;-35
2024/01/18 01:29:23;;;;;;;22.27;15.07;;;-2.50;99.90;;;;;;5087705;28;20047;-35
2024/01/18 01:31:49;;;;;;;19.33;15.10;;;-2.50;99.90;;;;;;5081436;28;20109;-35
2024/01/18 01:34:14;;;;;;;22.58;15.68;;;-2.60;99.90;;;;;;5084523;28;20043;-35
2024/01/18 01:36:40;;;;;;;19.25;14.27;;;-2.60;99.90;;;;;;5082355;28;20057;-37
2024/01/18 01:39:06;;;;;;;24.08;15.32;;;-2.60;99.90;;;;;;5077197;28;20119;-35
2024/01/18 01:41:32;;;;;;;18.88;13.82;;;-2.60;99.90;;;;;;5097933;28;20044;-35
2024/01/18 01:43:59;;;;;;;18.92;13.88;;;-2.60;99.90;;;;;;5079785;28;20492;-35
2024/01/18 01:46:26;;;;;;;21.88;14.27;;;-2.60;99.90;;;;;;5080206;28;20046;-35
2024/01/18 01:49:02;;;;;;;19.00;12.55;;;-2.60;99.90;;;;;;5087054;28;20075;-36
2024/01/18 01:51:39;;;;;;;19.45;13.82;;;-2.60;99.90;;;;;;5095036;28;20040;-35
2024/01/18 01:54:05;;;;;;;17.35;13.38;;;-2.60;99.90;;;;;;5091782;28;20104;-35
2024/01/18 01:56:34;;;;;;;15.95;12.65;;;-2.60;99.90;;;;;;5084976;28;20104;-35
2024/01/18 01:59:00;;;;;;;19.63;12.80;;;-2.60;99.90;;;;;;5074576;28;20050;-35
2024/01/18 02:01:25;;;;;;;17.73;12.30;;;-2.60;99.90;;;;;;5092418;28;20122;-35
2024/01/18 02:03:51;;;;;;;17.40;11.65;;;-2.60;99.90;;;;;;5095820;28;20602;-35
2024/01/18 02:06:17;;;;;;;17.58;12.20;;;-2.70;99.90;;;;;;5092206;28;20495;-35
2024/01/18 02:08:45;;;;;;;14.07;11.55;;;-2.70;99.90;;;;;;5079420;28;20082;-35
2024/01/18 02:11:11;;;;;;;20.60;11.38;;;-2.80;99.90;;;;;;5087641;28;20068;-35
2024/01/18 02:13:39;;;;;;;14.25;10.40;;;-2.80;99.90;;;;;;5084984;28;20487;-35
2024/01/18 02:16:05;;;;;;;16.02;9.88;;;-2.80;99.90;;;;;;5089177;28;20076;-35
2024/01/18 02:18:31;;;;;;;14.65;10.00;;;-2.70;99.90;;;;;;5066599;28;20044;-34
2024/01/18 02:20:57;;;;;;;14.57;10.52;;;-2.70;99.90;;;;;;5092731;28;20036;-36
2024/01/18 02:23:27;;;;;;;13.57;9.60;;;-2.80;99.90;;;;;;5089434;28;20038;-35
2024/01/18 02:25:53;;;;;;;13.75;10.20;;;-2.80;99.90;;;;;;5092082;28;20053;-35
2024/01/18 02:28:18;;;;;;;15.80;10.50;;;-2.80;99.90;;;;;;5094481;28;20665;-35
2024/01/18 02:30:44;;;;;;;11.95;8.88;;;-2.90;99.90;;;;;;5074639;28;20052;-35
2024/01/18 02:33:10;;;;;;;14.45;10.23;;;-2.90;99.90;;;;;;5091049;28;20040;-36
2024/01/18 02:35:36;;;;;;;13.85;9.55;;;-2.90;99.90;;;;;;5093728;28;20075;-35
2024/01/18 02:38:02;;;;;;;14.05;9.00;;;-3.00;99.90;;;;;;5095007;28;20049;-35
2024/01/18 02:40:28;;;;;;;13.88;8.40;;;-3.00;99.90;;;;;;5096154;28;20415;-35
2024/01/18 02:42:54;;;;;;;13.00;8.65;;;-3.00;99.90;;;;;;5094316;28;20043;-36
2024/01/18 02:45:21;;;;;;;12.10;8.60;;;-3.00;99.90;;;;;;5083654;28;20267;-35
2024/01/18 02:47:47;;;;;;;11.63;8.52;;;-3.00;99.90;;;;;;5092690;28;20040;-35
2024/01/18 02:50:12;;;;;;;12.13;8.15;;;-3.00;99.90;;;;;;5088123;28;20553;-35
2024/01/18 02:52:39;;;;;;;12.48;7.60;;;-3.00;99.90;;;;;;5092634;28;20043;-35
2024/01/18 02:55:06;;;;;;;11.90;8.00;;;-3.00;99.90;;;;;;5090327;28;20101;-35
2024/01/18 02:57:32;;;;;;;11.13;7.78;;;-3.10;99.90;;;;;;5086183;28;20076;-35
2024/01/18 02:59:58;;;;;;;10.90;8.20;;;-3.00;99.90;;;;;;5069860;28;20125;-36
2024/01/18 03:02:24;;;;;;;11.73;7.75;;;-3.10;99.90;;;;;;5064361;28;20040;-35
2024/01/18 03:04:49;;;;;;;11.35;8.02;;;-3.10;99.90;;;;;;5092251;28;20119;-35
2024/01/18 03:07:15;;;;;;;8.55;7.65;;;-3.10;99.90;;;;;;5068050;28;20045;-35
2024/01/18 03:09:41;;;;;;;10.45;6.97;;;-3.20;99.90;;;;;;5094053;28;20067;-34
2024/01/18 03:12:07;;;;;;;12.60;7.68;;;-3.20;99.90;;;;;;5079868;28;20048;-35
2024/01/18 03:14:33;;;;;;;11.70;8.13;;;-3.20;99.90;;;;;;5072765;28;20119;-34
2024/01/18 03:16:59;;;;;;;11.18;7.43;;;-3.20;99.90;;;;;;5083176;28;20051;-35
2024/01/18 03:19:25;;;;;;;10.18;8.00;;;-3.30;99.90;;;;;;5093238;28;20462;-35
2024/01/18 03:21:50;;;;;;;12.68;8.38;;;-3.30;99.90;;;;;;5087640;28;20479;-34
2024/01/18 03:24:16;;;;;;;10.70;7.32;;;-3.40;99.90;;;;;;5081790;28;20452;-35
2024/01/18 03:26:42;;;;;;;12.50;8.50;;;-3.30;99.90;;;;;;5083853;28;20048;-34
2024/01/18 03:29:09;;;;;;;9.60;7.20;;;-3.40;99.90;;;;;;5071210;28;20048;-35
2024/01/18 03:31:35;;;;;;;11.07;6.95;;;-3.30;99.90;;;;;;5078536;28;20457;-35
2024/01/18 03:34:01;;;;;;;9.07;7.22;;;-3.30;99.90;;;;;;5090112;28;20048;-34
2024/01/18 03:36:26;;;;;;;9.40;6.72;;;-3.30;99.90;;;;;;5074439;28;20392;-35
2024/01/18 03:38:52;;;;;;;9.95;6.97;;;-3.30;99.90;;;;;;5070528;28;20499;-35
2024/01/18 03:41:18;;;;;;;8.32;6.55;;;-3.40;99.90;;;;;;5081975;28;20064;-35
2024/01/18 03:43:43;;;;;;;12.50;6.75;;;-3.40;99.90;;;;;;5088851;28;20097;-34
2024/01/18 03:46:16;;;;;;;9.27;6.40;;;-3.40;99.90;;;;;;5084178;28;20044;-34
2024/01/18 03:48:42;;;;;;;9.38;6.35;;;-3.50;99.90;;;;;;5081631;28;20032;-35
2024/01/18 03:51:08;;;;;;;11.13;6.57;;;-3.50;99.90;;;;;;5087796;28;20047;-35
2024/01/18 03:53:35;;;;;;;10.88;6.53;;;-3.50;99.90;;;;;;5085836;28;20085;-35
2024/01/18 03:56:01;;;;;;;9.13;6.95;;;-3.50;99.90;;;;;;5091136;28;20395;-35
2024/01/18 03:58:27;;;;;;;12.00;6.88;;;-3.50;99.90;;;;;;5088458;28;20136;-34
2024/01/18 04:00:53;;;;;;;10.45;7.07;;;-3.60;99.90;;;;;;5091283;28;20117;-35
2024/01/18 04:03:20;;;;;;;10.52;6.30;;;-3.60;99.90;;;;;;5087222;28;20032;-35
2024/01/18 04:05:46;;;;;;;8.82;5.80;;;-3.60;99.90;;;;;;5067887;28;20090;-35
2024/01/18 04:08:11;;;;;;;11.85;6.40;;;-3.60;99.90;;;;;;5087701;28;20071;-35
2024/01/18 04:10:37;;;;;;;8.57;6.40;;;-3.60;99.90;;;;;;5086582;28;20036;-35
2024/01/18 04:13:03;;;;;;;7.53;6.00;;;-3.60;99.90;;;;;;5090422;28;20063;-34
2024/01/18 04:15:29;;;;;;;8.88;5.80;;;-3.70;99.90;;;;;;5081691;28;21140;-33
2024/01/18 04:17:54;;;;;;;8.38;6.35;;;-3.70;99.90;;;;;;5088328;28;20491;-35
2024/01/18 04:20:26;;;;;;;7.78;5.82;;;-3.70;99.90;;;;;;5079899;28;20071;-31
2024/01/18 04:22:52;;;;;;;8.55;6.00;;;-3.70;99.90;;;;;;5071182;28;20064;-34
2024/01/18 04:25:17;;;;;;;8.20;6.30;;;-3.70;99.90;;;;;;5088163;28;20074;-30
2024/01/18 04:27:43;;;;;;;7.97;5.50;;;-3.70;99.90;;;;;;5071426;28;20092;-32
2024/01/18 04:30:09;;;;;;;12.07;5.60;;;-3.70;99.90;;;;;;5075340;28;20064;-32
2024/01/18 04:32:35;;;;;;;6.90;5.47;;;-3.70;99.90;;;;;;5072544;28;20051;-34
2024/01/18 04:35:01;;;;;;;9.30;5.18;;;-3.70;99.90;;;;;;5083427;28;20036;-31
2024/01/18 04:37:26;;;;;;;6.40;5.20;;;-3.70;99.90;;;;;;5082603;28;20372;-31
2024/01/18 04:39:52;;;;;;;8.00;5.25;;;-3.70;99.90;;;;;;5085947;28;20032;-31
2024/01/18 04:42:19;;;;;;;7.47;5.50;;;-3.70;99.90;;;;;;5082437;28;20051;-31
2024/01/18 04:44:45;;;;;;;9.85;4.88;;;-3.70;99.90;;;;;;5072006;28;20044;-33
2024/01/18 04:47:11;;;;;;;7.05;4.45;;;-3.70;99.90;;;;;;5080008;28;20036;-32
2024/01/18 04:49:37;;;;;;;6.90;4.38;;;-3.70;99.90;;;;;;5084776;28;20047;-31
2024/01/18 04:52:03;;;;;;;8.43;4.93;;;-3.70;99.90;;;;;;5087751;28;20043;-31
2024/01/18 04:54:28;;;;;;;5.82;4.18;;;-3.70;99.90;;;;;;5084376;28;20041;-33
2024/01/18 04:56:54;;;;;;;7.00;4.70;;;-3.70;99.90;;;;;;5083212;28;20066;-32
2024/01/18 04:59:20;;;;;;;6.88;4.13;;;-3.50;99.90;;;;;;5089641;28;20036;-34
2024/01/18 05:01:47;;;;;;;7.57;3.88;;;-3.50;99.90;;;;;;5072650;28;20032;-33
2024/01/18 05:04:13;;;;;;;8.10;3.08;;;-3.40;99.90;;;;;;5090822;28;20036;-35
2024/01/18 05:06:39;;;;;;;5.40;3.15;;;-3.20;99.90;;;;;;5084067;28;20444;-33
2024/01/18 05:09:05;;;;;;;5.07;3.08;;;-3.20;99.90;;;;;;5088226;28;20044;-32
2024/01/18 05:11:31;;;;;;;5.20;3.08;;;-3.10;99.90;;;;;;5066861;28;20082;-31
2024/01/18 05:13:56;;;;;;;4.97;2.90;;;-3.00;99.90;;;;;;5063962;28;20042;-33
2024/01/18 05:16:23;;;;;;;4.43;2.80;;;-3.10;99.90;;;;;;5074913;28;20075;-31
2024/01/18 05:18:48;;;;;;;5.70;2.70;;;-3.00;99.90;;;;;;5085902;28;20617;-33
2024/01/18 05:21:14;;;;;;;5.80;2.85;;;-2.90;99.90;;;;;;5075304;28;20119;-32
2024/01/18 05:23:40;;;;;;;21.20;8.35;;;-3.00;99.90;;;;;;5091075;28;20070;-34
2024/01/18 05:26:06;;;;;;;23.20;9.90;;;-3.10;99.90;;;;;;5083231;28;20411;-33
2024/01/18 05:28:32;;;;;;;23.17;9.75;;;-3.10;99.90;;;;;;5081898;28;20498;-34
2024/01/18 05:30:58;;;;;;;11.70;5.15;;;-3.10;99.90;;;;;;5080099;28;20107;-32
2024/01/18 05:33:23;;;;;;;15.80;6.00;;;-3.20;99.90;;;;;;5075713;28;20113;-31
2024/01/18 05:35:50;;;;;;;10.63;4.70;;;-3.20;99.90;;;;;;5087857;28;20468;-31
2024/01/18 05:38:16;;;;;;;9.68;4.97;;;-3.20;99.90;;;;;;5084930;28;20124;-32
2024/01/18 05:40:43;;;;;;;9.70;4.72;;;-3.20;99.90;;;;;;5084418;28;20467;-34
2024/01/18 05:43:09;;;;;;;8.98;4.22;;;-3.30;99.90;;;;;;5082076;28;20028;-31
2024/01/18 05:45:34;;;;;;;8.18;3.95;;;-3.30;99.90;;;;;;5080383;28;20667;-32
2024/01/18 05:48:01;;;;;;;6.40;3.75;;;-3.30;99.90;;;;;;5072972;28;20041;-32
2024/01/18 05:50:27;;;;;;;8.90;3.25;;;-3.30;99.90;;;;;;5074193;28;20107;-30
2024/01/18 05:52:53;;;;;;;5.75;3.28;;;-3.30;99.90;;;;;;5076255;28;20051;-31
2024/01/18 05:55:19;;;;;;;3.63;2.95;;;-3.20;99.90;;;;;;5072069;28;20044;-32
2024/01/18 05:57:45;;;;;;;3.58;2.65;;;-3.20;99.90;;;;;;5080430;28;20048;-34
2024/01/18 06:00:12;;;;;;;5.20;2.78;;;-3.30;99.90;;;;;;5073773;28;20041;-33
2024/01/18 06:02:38;;;;;;;3.75;2.70;;;-3.20;99.90;;;;;;5072904;28;20101;-31
2024/01/18 06:05:04;;;;;;;5.43;2.88;;;-3.20;99.90;;;;;;5072732;28;20038;-32
2024/01/18 06:07:29;;;;;;;4.50;2.92;;;-3.20;99.90;;;;;;5079379;28;20410;-32
2024/01/18 06:09:55;;;;;;;2.90;2.60;;;-3.20;99.90;;;;;;5067056;28;20053;-32
2024/01/18 06:12:21;;;;;;;11.10;3.97;;;-3.20;99.90;;;;;;5081356;28;20087;-32
2024/01/18 06:14:47;;;;;;;5.90;2.60;;;-3.20;99.90;;;;;;5070678;28;20033;-32
2024/01/18 06:17:12;;;;;;;5.03;2.90;;;-3.20;99.90;;;;;;5083667;28;20124;-33
2024/01/18 06:19:38;;;;;;;4.43;2.75;;;-3.20;99.90;;;;;;5083552;28;20044;-30
2024/01/18 06:22:04;;;;;;;5.25;2.88;;;-3.30;99.90;;;;;;5077195;28;20048;-33
2024/01/18 06:24:30;;;;;;;4.95;2.70;;;-3.30;99.90;;;;;;5077243;28;20082;-32
2024/01/18 06:26:56;;;;;;;3.70;2.53;;;-3.30;99.90;;;;;;5086732;28;20123;-32
2024/01/18 06:29:29;;;;;;;4.97;2.80;;;-3.40;99.90;;;;;;5084620;28;20093;-32
2024/01/18 06:31:54;;;;;;;5.18;2.80;;;-3.40;99.90;;;;;;5091403;28;20099;-33
2024/01/18 06:34:20;;;;;;;3.13;2.22;;;-3.50;99.90;;;;;;5061610;28;20072;-33
2024/01/18 06:36:46;;;;;;;5.57;2.88;;;-3.50;99.90;;;;;;5090553;28;20105;-33
2024/01/18 06:39:12;;;;;;;5.45;2.70;;;-3.50;99.90;;;;;;5083458;28;20545;-33
2024/01/18 06:41:37;;;;;;;3.95;2.75;;;-3.50;99.90;;;;;;5057113;28;20042;-32
2024/01/18 06:44:05;;;;;;;7.63;2.70;;;-3.60;99.90;;;;;;5090138;28;20054;-33
2024/01/18 06:46:31;;;;;;;5.40;2.35;;;-3.60;99.90;;;;;;5062989;28;20046;-32
2024/01/18 06:48:57;;;;;;;3.10;2.47;;;-3.50;99.90;;;;;;5075470;28;20494;-33
2024/01/18 06:51:23;;;;;;;4.10;2.45;;;-3.60;99.90;;;;;;5079379;28;20128;-33
2024/01/18 06:53:50;;;;;;;2.90;2.63;;;-3.60;99.90;;;;;;5064454;28;20126;-32
2024/01/18 06:56:16;;;;;;;4.95;2.60;;;-3.60;99.90;;;;;;5074622;28;20049;-33
2024/01/18 06:58:43;;;;;;;5.07;2.63;;;-3.60;99.90;;;;;;5090098;28;20426;-33
2024/01/18 07:01:10;;;;;;;5.57;2.90;;;-3.60;99.90;;;;;;5079217;28;20060;-32
2024/01/18 07:03:36;;;;;;;5.22;3.05;;;-3.60;99.90;;;;;;5078159;28;20067;-32
2024/01/18 07:06:03;;;;;;;3.67;2.85;;;-3.50;99.90;;;;;;5081075;28;20045;-33
2024/01/18 07:08:29;;;;;;;5.53;2.65;;;-3.50;99.90;;;;;;5085368;28;20041;-32
2024/01/18 07:10:56;;;;;;;2.85;2.58;;;-3.40;99.90;;;;;;5081537;28;20040;-32
2024/01/18 07:13:22;;;;;;;3.97;2.65;;;-3.40;99.90;;;;;;5077745;28;20040;-32
2024/01/18 07:15:47;;;;;;;6.43;2.50;;;-3.30;99.90;;;;;;5080622;28;20128;-32
2024/01/18 07:18:13;;;;;;;4.40;2.60;;;-3.30;99.90;;;;;;5089914;28;20060;-33
2024/01/18 07:20:39;;;;;;;3.63;2.40;;;-3.30;99.90;;;;;;5077938;28;20487;-33
2024/01/18 07:23:05;;;;;;;3.40;2.03;;;-3.30;99.90;;;;;;5087452;28;20071;-32
2024/01/18 07:25:31;;;;;;;3.42;2.10;;;-3.30;99.90;;;;;;5091220;28;20051;-33
2024/01/18 07:27:57;;;;;;;5.53;2.17;;;-3.30;99.90;;;;;;5080155;28;20144;-33
2024/01/18 07:30:23;;;;;;;4.72;2.85;;;-3.30;99.90;;;;;;5054687;28;20056;-33
2024/01/18 07:32:49;;;;;;;3.65;2.80;;;-3.30;99.90;;;;;;5081637;28;20037;-32
2024/01/18 07:35:15;;;;;;;3.17;2.00;;;-3.40;99.90;;;;;;5088423;28;20044;-33
2024/01/18 07:37:41;;;;;;;4.38;1.92;;;-3.40;99.90;;;;;;5083446;28;20046;-33
2024/01/18 07:40:07;;;;;;;4.32;2.17;;;-3.40;99.90;;;;;;5053189;28;20036;-32
2024/01/18 07:42:33;;;;;;;4.78;2.50;;;-3.40;99.90;;;;;;5089240;28;20085;-33
2024/01/18 07:44:59;;;;;;;5.88;2.17;;;-3.40;99.90;;;;;;5077085;28;20037;-32
2024/01/18 07:47:25;;;;;;;2.88;2.17;;;-3.40;99.90;;;;;;5090361;28;20044;-32
2024/01/18 07:49:51;;;;;;;4.25;2.28;;;-3.40;99.90;;;;;;5084671;28;20037;-33
2024/01/18 07:52:18;;;;;;;5.03;2.20;;;-3.40;99.90;;;;;;5090941;28;20104;-34
2024/01/18 07:54:44;;;;;;;3.30;2.13;;;-3.50;99.90;;;;;;5064700;28;20513;-32
2024/01/18 07:57:10;;;;;;;3.10;1.88;;;-3.50;99.90;;;;;;5053863;28;20079;-33
2024/01/18 07:59:36;;;;;;;2.80;2.10;;;-3.50;99.90;;;;;;5089082;28;20072;-32
2024/01/18 08:02:02;;;;;;;5.70;2.33;;;-3.50;99.90;;;;;;5077189;28;20037;-34
2024/01/18 08:04:29;;;;;;;6.63;2.05;;;-3.50;99.90;;;;;;5091361;28;20036;-32
2024/01/18 08:06:55;;;;;;;6.00;2.50;;;-3.60;99.90;;;;;;5079119;28;20041;-32
2024/01/18 08:09:21;;;;;;;4.60;2.15;;;-3.60;99.90;;;;;;5090742;28;20556;-33
2024/01/18 08:11:47;;;;;;;3.42;2.13;;;-3.60;99.90;;;;;;5073297;28;20048;-32
2024/01/18 08:14:14;;;;;;;2.88;2.10;;;-3.50;99.90;;;;;;5081208;28;20498;-32
2024/01/18 08:16:40;;;;;;;15.05;6.35;;;-3.50;99.90;;;;;;5083455;28;20076;-32
2024/01/18 08:19:07;;;;;;;22.10;8.32;;;-3.50;99.90;;;;;;5066846;28;20071;-33
2024/01/18 08:21:33;;;;;;;9.70;5.00;;;-3.50;99.90;;;;;;5057923;28;20093;-32
2024/01/18 08:23:59;;;;;;;10.93;5.80;;;-3.50;99.90;;;;;;5085586;28;20043;-33
2024/01/18 08:26:24;;;;;;;13.68;6.72;;;-3.40;99.90;;;;;;5083505;28;20408;-34
2024/01/18 08:28:50;;;;;;;10.13;4.50;;;-3.40;99.90;;;;;;5083956;28;20471;-33
2024/01/18 08:31:16;;;;;;;6.60;3.97;;;-3.30;99.90;;;;;;5079215;28;20056;-33
2024/01/18 08:33:41;;;;;;;10.35;5.65;;;-3.30;99.90;;;;;;5076999;28;20048;-33
2024/01/18 08:36:08;;;;;;;8.68;5.68;;;-3.30;99.90;;;;;;5064774;28;20095;-33
2024/01/18 08:38:34;;;;;;;9.52;5.18;;;-3.20;99.90;;;;;;5081693;28;20108;-32
2024/01/18 08:41:00;;;;;;;10.10;5.20;;;-3.10;99.90;;;;;;5057628;28;20041;-33
2024/01/18 08:43:26;;;;;;;16.58;8.65;;;-2.90;99.90;;;;;;5086656;28;20054;-33
2024/01/18 08:45:53;;;;;;;12.30;5.03;;;-2.40;99.90;;;;;;5070352;28;20093;-32
2024/01/18 08:48:20;;;;;;;6.85;4.07;;;-1.90;99.90;;;;;;5079764;28;20555;-33
2024/01/18 08:50:46;;;;;;;7.40;4.43;;;-1.50;99.90;;;;;;5077846;28;20035;-33
2024/01/18 08:53:12;;;;;;;4.55;2.95;;;-1.20;99.90;;;;;;5081260;28;20484;-33
2024/01/18 08:55:38;;;;;;;4.28;2.78;;;-0.90;99.90;;;;;;5076450;28;20039;-33
2024/01/18 08:58:05;;;;;;;2.97;2.50;;;-0.90;99.90;;;;;;5086794;28;20115;-33
2024/01/18 09:00:30;;;;;;;5.10;3.17;;;-0.90;99.90;;;;;;5076008;28;20040;-33
2024/01/18 09:02:56;;;;;;;8.07;3.00;;;-0.90;99.90;;;;;;5080595;28;20043;-33
2024/01/18 09:05:22;;;;;;;5.20;2.60;;;-1.00;99.90;;;;;;5080514;28;20047;-33
2024/01/18 09:07:48;;;;;;;3.47;2.25;;;-1.00;99.90;;;;;;5067701;28;20055;-33
2024/01/18 09:10:14;;;;;;;2.65;2.42;;;-1.00;99.90;;;;;;5061072;28;20432;-33
2024/01/18 09:12:39;;;;;;;4.03;2.58;;;-1.00;99.90;;;;;;5069275;28;20146;-33
2024/01/18 09:15:06;;;;;;;3.03;2.35;;;-1.10;99.90;;;;;;5077543;28;20115;-33
2024/01/18 09:17:31;;;;;;;4.68;2.65;;;-1.10;99.90;;;;;;5090230;28;20483;-33
2024/01/18 09:19:57;;;;;;;4.88;2.22;;;-1.10;99.90;;;;;;5056151;28;20047;-32
2024/01/18 09:22:23;;;;;;;4.10;1.90;;;-1.10;99.90;;;;;;5078514;28;20032;-33
2024/01/18 09:24:49;;;;;;;6.63;2.67;;;-1.00;99.90;;;;;;5083644;28;20072;-33
2024/01/18 09:27:15;;;;;;;5.65;2.20;;;-1.00;99.90;;;;;;5074752;28;20109;-33
2024/01/18 09:29:41;;;;;;;5.10;2.65;;;-0.80;99.90;;;;;;5075712;28;20035;-34
2024/01/18 09:32:07;;;;;;;7.82;2.65;;;-0.50;99.90;;;;;;5084643;28;20058;-33
2024/01/18 09:34:33;;;;;;;3.47;1.90;;;0.10;99.90;;;;;;5072811;28;20069;-33
2024/01/18 09:36:59;;;;;;;4.00;2.03;;;1.00;99.90;;;;;;5082104;28;20043;-34
2024/01/18 09:39:25;;;;;;;4.70;2.30;;;1.80;99.90;;;;;;5055750;28;20035;-33
2024/01/18 09:41:52;;;;;;;3.70;1.83;;;2.90;99.90;;;;;;5080122;28;20064;-34
2024/01/18 09:44:25;;;;;;;3.13;1.45;;;3.60;99.90;;;;;;5083875;28;20067;-34
2024/01/18 09:46:56;;;;;;;3.33;1.63;;;4.40;99.90;;;;;;5081598;28;20126;-33
2024/01/18 09:49:23;;;;;;;4.30;2.00;;;4.90;99.90;;;;;;5080290;28;20040;-34
2024/01/18 09:51:50;;;;;;;3.63;1.67;;;5.50;99.90;;;;;;5054659;28;20123;-33
2024/01/18 09:54:17;;;;;;;3.67;2.03;;;6.10;99.90;;;;;;5063421;28;20036;-31
2024/01/18 09:56:45;;;;;;;3.08;1.80;;;6.60;99.90;;;;;;5074774;28;20037;-34
2024/01/18 09:59:21;;;;;;;3.90;2.10;;;6.90;99.90;;;;;;5069227;28;20123;-36
2024/01/18 10:01:48;;;;;;;2.80;1.50;;;7.10;99.90;;;;;;5076449;28;20123;-37
2024/01/18 10:04:17;;;;;;;3.03;1.90;;;7.30;99.90;;;;;;5085658;28;20036;-38
2024/01/18 10:06:43;;;;;;;2.92;1.90;;;7.50;99.90;;;;;;5078847;28;20075;-36
2024/01/18 10:09:14;;;;;;;3.30;1.50;;;8.00;99.90;;;;;;5082677;28;20079;-35
2024/01/18 10:11:45;;;;;;;2.25;1.42;;;8.10;99.90;;;;;;5072263;28;20044;-37
2024/01/18 10:14:11;;;;;;;3.42;1.45;;;8.40;99.90;;;;;;5083436;28;20444;-38
2024/01/18 10:16:39;;;;;;;5.90;1.80;;;8.40;99.90;;;;;;5081499;28;20097;-36
2024/01/18 10:19:14;;;;;;;4.22;1.60;;;8.50;99.90;;;;;;5091958;28;20085;-38
2024/01/18 10:21:41;;;;;;;6.00;1.60;;;8.80;99.90;;;;;;5066376;28;20047;-38
2024/01/18 10:24:17;;;;;;;3.40;1.50;;;8.90;99.90;;;;;;5073849;28;20153;-36
2024/01/18 10:26:44;;;;;;;3.97;1.58;;;9.20;99.90;;;;;;5090893;28;20068;-37
2024/01/18 10:29:10;;;;;;;3.33;1.65;;;9.00;99.90;;;;;;5079850;28;20098;-36
2024/01/18 10:31:41;;;;;;;2.80;1.70;;;8.80;99.90;;;;;;5087952;28;20067;-40
2024/01/18 10:34:07;;;;;;;1.50;1.33;;;8.70;99.90;;;;;;5081907;28;20032;-36
2024/01/18 10:36:34;;;;;;;3.42;1.40;;;8.40;99.90;;;;;;5089451;28;20139;-36
2024/01/18 10:39:15;;;;;;;2.10;1.30;;;8.20;99.90;;;;;;5085098;28;20097;-40
2024/01/18 10:41:41;;;;;;;3.40;1.35;;;8.10;99.90;;;;;;5093299;28;20028;-38
2024/01/18 10:44:07;;;;;;;3.92;1.30;;;7.70;99.90;;;;;;5088954;28;20107;-36
2024/01/18 10:46:34;;;;;;;3.15;1.35;;;7.40;99.90;;;;;;5080642;28;20036;-36
2024/01/18 10:49:01;;;;;;;2.08;1.20;;;7.20;99.90;;;;;;5091016;28;20036;-36
2024/01/18 10:51:27;;;;;;;3.38;1.13;;;7.30;99.90;;;;;;5080086;28;20045;-37
2024/01/18 10:53:54;;;;;;;3.33;1.10;;;7.60;99.90;;;;;;5071988;28;20040;-39
2024/01/18 10:56:22;;;;;;;3.38;1.25;;;7.80;99.90;;;;;;5083266;28;20075;-36
2024/01/18 10:58:49;;;;;;;3.15;1.25;;;8.40;99.90;;;;;;5091848;28;20040;-36
2024/01/18 11:01:16;;;;;;;3.08;1.00;;;8.70;99.90;;;;;;5085543;28;20036;-38
2024/01/18 11:03:43;;;;;;;3.65;1.00;;;8.60;99.90;;;;;;5081979;28;20111;-36
2024/01/18 11:06:12;;;;;;;3.53;1.30;;;8.50;99.90;;;;;;5088961;28;20051;-38
2024/01/18 11:08:41;;;;;;;3.80;1.60;;;8.60;99.90;;;;;;5080577;28;20495;-37
2024/01/18 11:11:07;;;;;;;4.85;1.17;;;9.20;99.90;;;;;;5056354;28;20123;-42
2024/01/18 11:13:34;;;;;;;2.58;1.10;;;9.60;99.90;;;;;;5085739;28;20028;-39
2024/01/18 11:16:00;;;;;;;2.78;1.13;;;10.10;99.90;;;;;;5083533;28;20032;-41
2024/01/18 11:18:26;;;;;;;4.60;1.95;;;10.70;99.90;;;;;;5065726;28;20036;-38
2024/01/18 11:20:58;;;;;;;1.90;0.90;;;11.10;99.90;;;;;;5079790;28;20036;-37
2024/01/18 11:23:28;;;;;;;1.80;1.00;;;11.00;99.90;;;;;;5082712;28;20040;-39
2024/01/18 11:25:54;;;;;;;1.98;1.00;;;10.60;99.90;;;;;;5064430;28;20043;-38
2024/01/18 11:28:24;;;;;;;4.10;1.08;;;9.80;99.90;;;;;;5088886;28;20056;-38
2024/01/18 11:30:49;;;;;;;2.00;1.00;;;8.90;99.90;;;;;;5087591;28;20091;-38
2024/01/18 11:33:15;;;;;;;2.75;0.98;;;8.40;99.90;;;;;;5086506;28;20071;-40
2024/01/18 11:35:42;;;;;;;3.38;0.85;;;8.00;99.90;;;;;;5087153;28;20495;-40
2024/01/18 11:38:32;;;;;;;2.60;1.00;;;7.70;99.90;;;;;;5057824;28;20127;-39
2024/01/18 11:41:08;;;;;;;3.38;1.10;;;7.40;99.90;;;;;;5073460;28;20557;-38
2024/01/18 11:44:07;;;;;;;1.55;1.10;;;6.90;99.90;;;;;;5082014;28;20117;-41
2024/01/18 11:46:41;;;;;;;3.33;1.10;;;6.80;99.90;;;;;;5074967;28;20055;-38
2024/01/18 11:49:08;;;;;;;1.40;0.70;;;7.00;99.90;;;;;;5076306;28;20489;-41
2024/01/18 11:51:35;;;;;;;2.63;1.20;;;7.50;99.90;;;;;;5075661;28;20101;-37
2024/01/18 11:54:02;;;;;;;1.98;1.20;;;8.20;99.90;;;;;;5061392;28;20665;-40
2024/01/18 11:56:29;;;;;;;4.03;1.05;;;8.90;99.90;;;;;;5071657;28;20400;-41
2024/01/18 11:58:58;;;;;;;1.98;1.10;;;9.00;99.90;;;;;;5079679;28;20082;-37
2024/01/18 12:01:25;;;;;;;3.58;1.10;;;9.40;99.90;;;;;;5082537;28;20036;-38
2024/01/18 12:03:52;;;;;;;2.85;1.40;;;9.70;99.90;;;;;;5063410;28;20138;-38
2024/01/18 12:06:19;;;;;;;3.80;1.00;;;9.90;99.90;;;;;;5087551;28;20117;-38
2024/01/18 12:08:45;;;;;;;3.33;1.10;;;9.90;99.90;;;;;;5078682;28;20602;-38
2024/01/18 12:11:12;;;;;;;1.85;1.05;;;10.30;99.90;;;;;;5090535;28;20491;-38
2024/01/18 12:13:38;;;;;;;2.00;1.00;;;10.90;99.90;;;;;;5080408;28;20039;-37
2024/01/18 12:16:05;;;;;;;2.58;1.27;;;11.10;99.90;;;;;;5084838;28;20054;-39
2024/01/18 12:18:40;;;;;;;3.08;1.48;;;11.20;99.90;;;;;;5075774;28;20050;-38
2024/01/18 12:21:06;;;;;;;3.22;1.33;;;10.80;99.90;;;;;;5062699;28;20037;-37
2024/01/18 12:23:32;;;;;;;5.03;2.00;;;10.60;99.90;;;;;;5088967;28;20395;-39
2024/01/18 12:25:58;;;;;;;2.30;1.52;;;10.40;99.90;;;;;;5065127;28;20044;-39
2024/01/18 12:28:25;;;;;;;1.52;1.00;;;10.20;99.90;;;;;;5091673;28;20040;-37
2024/01/18 12:30:51;;;;;;;2.58;1.48;;;9.70;99.90;;;;;;5063914;28;20088;-37
2024/01/18 12:33:18;;;;;;;1.55;1.08;;;9.40;99.90;;;;;;5057735;28;20077;-39
2024/01/18 12:35:46;;;;;;;0.98;0.65;;;9.20;99.90;;;;;;5068220;28;20039;-40
2024/01/18 12:38:11;;;;;;;1.10;0.80;;;8.80;99.90;;;;;;5058911;28;20132;-40
2024/01/18 12:40:37;;;;;;;4.50;1.70;;;8.00;99.90;;;;;;5069442;28;20111;-37